Fall River Mills, CA (96028)

10:20 PM PDT on August 29, 2016 (GMT -0700)
Glenburn | | Change Station

Elev 3347 ft 41.08 °N, 121.54 °W | Updated 0 second ago

Clear
Clear
62.1 °F
Feels Like 62.1 °F
N
0.0
Wind Variable Wind from NW
Gusts 0.0 mph

Today
High -- | Low -- °F
--% Chance of Precip.
Yesterday
High -- | Low -- °F
Precip. -- in
Pressure 30.08 in
Visibility 10.0 miles
Clouds Clear
Dew Point 38 °F
Humidity 41%
Rainfall 0.00 in
Snow Depth Not available.
6:30 AM 7:42 PM
Waning Crescent, 5% visible
METAR KMHS 300456Z AUTO 00000KT 10SM CLR 15/03 A3010 RMK AO2 SLP186 T01500028
Pressure 30.08 in
Visibility 10.0 miles
Clouds Clear
Dew Point 38 °F
Humidity 41%
Rainfall 0.00 in
Snow Depth Not available.
6:30 AM 7:42 PM
Waning Crescent, 5% visible
METAR KMHS 300456Z AUTO 00000KT 10SM CLR 15/03 A3010 RMK AO2 SLP186 T01500028

10-Day Weather Forecast

Almanac

Astronomy

Aug. 29, 2016 Rise Set
Actual Time
Civil Twilight
Nautical Twilight
Astronomical Twilight
Moon
Length of Visible Light
Length of Day
Tomorrow will be .
, % of the Moon is Illuminated

Today's Extremes

State Highs State Lows

Community

WunderPhotos

Upload Photos

1,935,793 photos uploaded!

WunderBlog® & News

Nearby

Air Quality

  Air Quality AQ Index Pollutant
Not available.

Snow Depth

Station Depth Elevation

Earthquake Activity

City Distance Mag. Time & Date
Minimum magnitude displayed is 2.5.

Coastal Water Temperatures

Place Temperature

Stations

Nearby Weather Stations

Station Location Temp. Windchill Dew Point Humidity Wind Precip. Elev Updated Type
                   

Watches & Warnings

There are currently no watches in effect.